RPA5720 KBOS-KJFK
Flight info
| Callsign | RPA5720 |
|---|---|
| Flight time | 0h 44m |
| Altitude | 22000 |
| Route | SSOXS7 SSOXS BUZRD SEY PARCH4 |
| Aircraft | E75L/M-SDE3GILORVW/S |
Departure
| Time | 2026-04-30 21:18 |
|---|---|
| Airport | Boston Logan International Airport (KBOS) |
Arrival
| Time | 2026-04-30 22:02 |
|---|---|
| Airport | John F. Kennedy International Airport (KJFK) |
| Time | Latitude | Longitude | Altitude | Speed | Heading |
|---|---|---|---|---|---|
| 2026-04-30 20:55 | 42.36218 | -71.02090 | 16 ft | 0 kts | 178° |
| 2026-04-30 21:08 | 42.36225 | -71.02091 | 15 ft | 2 kts | 178° |
| 2026-04-30 21:09 | 42.36241 | -71.02092 | 15 ft | 2 kts | 178° |
| 2026-04-30 21:09 | 42.36255 | -71.02097 | 15 ft | 2 kts | 141° |
| 2026-04-30 21:09 | 42.36264 | -71.02113 | 15 ft | 2 kts | 116° |
| 2026-04-30 21:09 | 42.36271 | -71.02123 | 15 ft | 1 kts | 167° |
| 2026-04-30 21:10 | 42.36282 | -71.02120 | 15 ft | 1 kts | 224° |
| 2026-04-30 21:10 | 42.36286 | -71.02113 | 15 ft | 0 kts | 260° |
| 2026-04-30 21:10 | 42.36287 | -71.02103 | 15 ft | 0 kts | 255° |
| 2026-04-30 21:12 | 42.36286 | -71.02106 | 15 ft | 1 kts | 255° |
| 2026-04-30 21:12 | 42.36278 | -71.02148 | 15 ft | 7 kts | 253° |
| 2026-04-30 21:13 | 42.36260 | -71.02222 | 15 ft | 9 kts | 245° |
| 2026-04-30 21:13 | 42.36194 | -71.02275 | 15 ft | 12 kts | 204° |
| 2026-04-30 21:13 | 42.36113 | -71.02317 | 16 ft | 12 kts | 195° |
| 2026-04-30 21:13 | 42.36060 | -71.02302 | 16 ft | 0 kts | 143° |
| 2026-04-30 21:14 | 42.36048 | -71.02288 | 16 ft | 5 kts | 136° |
| 2026-04-30 21:14 | 42.36016 | -71.02221 | 16 ft | 11 kts | 120° |
| 2026-04-30 21:15 | 42.35965 | -71.02106 | 16 ft | 16 kts | 119° |
| 2026-04-30 21:15 | 42.35903 | -71.01966 | 17 ft | 17 kts | 120° |
| 2026-04-30 21:15 | 42.35852 | -71.01822 | 18 ft | 16 kts | 103° |
| 2026-04-30 21:15 | 42.35828 | -71.01669 | 18 ft | 16 kts | 98° |
| 2026-04-30 21:16 | 42.35797 | -71.01518 | 19 ft | 17 kts | 108° |
| 2026-04-30 21:16 | 42.35759 | -71.01373 | 19 ft | 11 kts | 111° |
| 2026-04-30 21:16 | 42.35737 | -71.01301 | 19 ft | 6 kts | 124° |
| 2026-04-30 21:16 | 42.35702 | -71.01281 | 19 ft | 3 kts | 203° |
| 2026-04-30 21:17 | 42.35679 | -71.01294 | 19 ft | 3 kts | 201° |
| 2026-04-30 21:17 | 42.35649 | -71.01306 | 19 ft | 5 kts | 186° |
| 2026-04-30 21:17 | 42.35595 | -71.01276 | 19 ft | 12 kts | 121° |
| 2026-04-30 21:17 | 42.35627 | -71.01012 | 18 ft | 63 kts | 78° |
| 2026-04-30 21:18 | 42.35788 | -71.00103 | 13 ft | 133 kts | 77° |
| 2026-04-30 21:18 | 42.36021 | -70.98715 | 370 ft | 159 kts | 76° |
| 2026-04-30 21:18 | 42.36250 | -70.97231 | 1060 ft | 167 kts | 78° |
| 2026-04-30 21:18 | 42.36502 | -70.95648 | 1527 ft | 188 kts | 76° |
| 2026-04-30 21:19 | 42.36797 | -70.93775 | 1906 ft | 217 kts | 76° |
| 2026-04-30 21:19 | 42.37161 | -70.91718 | 2455 ft | 236 kts | 75° |
| 2026-04-30 21:19 | 42.37550 | -70.89566 | 3330 ft | 241 kts | 75° |
| 2026-04-30 21:19 | 42.37960 | -70.87259 | 3901 ft | 260 kts | 76° |
| 2026-04-30 21:20 | 42.38384 | -70.84831 | 4553 ft | 274 kts | 76° |
| 2026-04-30 21:20 | 42.38828 | -70.82308 | 5314 ft | 283 kts | 81° |
| 2026-04-30 21:20 | 42.38678 | -70.79672 | 6110 ft | 286 kts | 107° |
| 2026-04-30 21:20 | 42.38124 | -70.77097 | 6957 ft | 289 kts | 108° |
| 2026-04-30 21:21 | 42.37551 | -70.74485 | 7806 ft | 291 kts | 111° |
| 2026-04-30 21:21 | 42.36539 | -70.72232 | 8568 ft | 284 kts | 143° |
| 2026-04-30 21:21 | 42.33057 | -70.70116 | 10169 ft | 276 kts | 165° |
| 2026-04-30 21:22 | 42.31222 | -70.69259 | 10886 ft | 280 kts | 165° |
| 2026-04-30 21:22 | 42.25440 | -70.66597 | 12474 ft | 307 kts | 165° |
| 2026-04-30 21:23 | 42.23426 | -70.65672 | 13073 ft | 312 kts | 165° |
| 2026-04-30 21:23 | 42.21354 | -70.64720 | 13729 ft | 314 kts | 165° |
| 2026-04-30 21:23 | 42.17213 | -70.62823 | 15016 ft | 319 kts | 165° |
| 2026-04-30 21:24 | 42.15096 | -70.61883 | 15615 ft | 320 kts | 171° |
| 2026-04-30 21:24 | 42.12942 | -70.61880 | 16153 ft | 314 kts | 196° |
| 2026-04-30 21:24 | 42.10860 | -70.62714 | 16728 ft | 316 kts | 199° |
| 2026-04-30 21:24 | 42.08761 | -70.63618 | 17295 ft | 318 kts | 200° |
| 2026-04-30 21:25 | 42.04516 | -70.65476 | 18415 ft | 324 kts | 200° |
| 2026-04-30 21:25 | 42.02375 | -70.66417 | 18978 ft | 326 kts | 201° |
| 2026-04-30 21:25 | 42.00205 | -70.67371 | 19538 ft | 329 kts | 201° |
| 2026-04-30 21:26 | 41.95856 | -70.69282 | 20587 ft | 334 kts | 200° |
| 2026-04-30 21:26 | 41.93624 | -70.70262 | 21111 ft | 336 kts | 201° |
| 2026-04-30 21:27 | 41.89192 | -70.72205 | 21960 ft | 336 kts | 200° |
| 2026-04-30 21:27 | 41.86899 | -70.73211 | 21995 ft | 352 kts | 201° |
| 2026-04-30 21:27 | 41.84523 | -70.74253 | 22009 ft | 366 kts | 201° |
| 2026-04-30 21:28 | 41.80032 | -70.77364 | 22000 ft | 366 kts | 211° |
| 2026-04-30 21:28 | 41.77800 | -70.79042 | 21996 ft | 364 kts | 211° |
| 2026-04-30 21:28 | 41.73411 | -70.82338 | 21999 ft | 365 kts | 211° |
| 2026-04-30 21:29 | 41.71188 | -70.84006 | 21997 ft | 364 kts | 211° |
| 2026-04-30 21:29 | 41.64565 | -70.88967 | 21998 ft | 365 kts | 211° |
| 2026-04-30 21:30 | 41.60146 | -70.92271 | 22000 ft | 364 kts | 211° |
| 2026-04-30 21:31 | 41.53836 | -70.97726 | 22017 ft | 362 kts | 230° |
| 2026-04-30 21:31 | 41.50613 | -71.02924 | 22002 ft | 360 kts | 231° |
| 2026-04-30 21:32 | 41.47448 | -71.08073 | 21998 ft | 361 kts | 231° |
| 2026-04-30 21:32 | 41.45837 | -71.10690 | 21929 ft | 362 kts | 231° |
| 2026-04-30 21:32 | 41.44255 | -71.13261 | 21800 ft | 359 kts | 231° |
| 2026-04-30 21:32 | 41.42671 | -71.15832 | 21806 ft | 359 kts | 231° |
| 2026-04-30 21:33 | 41.41082 | -71.18410 | 21797 ft | 359 kts | 231° |
| 2026-04-30 21:33 | 41.37926 | -71.23524 | 21800 ft | 360 kts | 231° |
| 2026-04-30 21:33 | 41.36329 | -71.26128 | 21805 ft | 360 kts | 232° |
| 2026-04-30 21:34 | 41.34806 | -71.28754 | 21804 ft | 361 kts | 232° |
| 2026-04-30 21:34 | 41.31646 | -71.33913 | 21806 ft | 360 kts | 231° |
| 2026-04-30 21:34 | 41.30049 | -71.36471 | 21807 ft | 360 kts | 231° |
| 2026-04-30 21:35 | 41.28450 | -71.39023 | 21809 ft | 360 kts | 231° |
| 2026-04-30 21:35 | 41.26858 | -71.41559 | 21804 ft | 361 kts | 231° |
| 2026-04-30 21:35 | 41.25246 | -71.44124 | 21812 ft | 360 kts | 231° |
| 2026-04-30 21:35 | 41.23642 | -71.46674 | 21808 ft | 360 kts | 231° |
| 2026-04-30 21:36 | 41.22037 | -71.49221 | 21807 ft | 360 kts | 231° |
| 2026-04-30 21:36 | 41.20435 | -71.51765 | 21816 ft | 359 kts | 231° |
| 2026-04-30 21:37 | 41.16484 | -71.59965 | 21840 ft | 361 kts | 257° |
| 2026-04-30 21:37 | 41.16054 | -71.63267 | 21818 ft | 362 kts | 258° |
| 2026-04-30 21:37 | 41.15642 | -71.66552 | 21814 ft | 361 kts | 258° |
| 2026-04-30 21:37 | 41.15229 | -71.69872 | 21812 ft | 362 kts | 258° |
| 2026-04-30 21:38 | 41.14820 | -71.73167 | 21813 ft | 361 kts | 258° |
| 2026-04-30 21:38 | 41.14417 | -71.76413 | 21816 ft | 361 kts | 258° |
| 2026-04-30 21:38 | 41.14005 | -71.79720 | 21813 ft | 362 kts | 258° |
| 2026-04-30 21:38 | 41.13597 | -71.82983 | 21812 ft | 362 kts | 258° |
| 2026-04-30 21:39 | 41.13183 | -71.86292 | 21810 ft | 362 kts | 258° |
| 2026-04-30 21:39 | 41.12772 | -71.89571 | 21807 ft | 363 kts | 258° |
| 2026-04-30 21:39 | 41.12357 | -71.92870 | 21807 ft | 363 kts | 258° |
| 2026-04-30 21:39 | 41.11944 | -71.96149 | 21806 ft | 362 kts | 258° |
| 2026-04-30 21:40 | 41.11529 | -71.99435 | 21805 ft | 361 kts | 258° |
| 2026-04-30 21:40 | 41.11115 | -72.02705 | 21797 ft | 354 kts | 258° |
| 2026-04-30 21:40 | 41.10712 | -72.05877 | 21798 ft | 348 kts | 258° |
| 2026-04-30 21:40 | 41.10310 | -72.09035 | 21801 ft | 347 kts | 258° |
| 2026-04-30 21:41 | 41.09868 | -72.12182 | 21800 ft | 346 kts | 252° |
| 2026-04-30 21:41 | 41.09146 | -72.15214 | 21571 ft | 346 kts | 250° |
| 2026-04-30 21:41 | 41.08408 | -72.18205 | 21136 ft | 344 kts | 250° |
| 2026-04-30 21:41 | 41.07661 | -72.21221 | 20685 ft | 341 kts | 250° |
| 2026-04-30 21:42 | 41.06936 | -72.24154 | 20244 ft | 338 kts | 250° |
| 2026-04-30 21:42 | 41.06200 | -72.27117 | 19793 ft | 335 kts | 250° |
| 2026-04-30 21:42 | 41.05479 | -72.30024 | 19356 ft | 334 kts | 250° |
| 2026-04-30 21:42 | 41.04758 | -72.32925 | 18913 ft | 334 kts | 250° |
| 2026-04-30 21:43 | 41.04034 | -72.35832 | 18474 ft | 333 kts | 250° |
| 2026-04-30 21:43 | 41.03315 | -72.38719 | 18041 ft | 331 kts | 250° |
| 2026-04-30 21:43 | 41.02592 | -72.41617 | 17598 ft | 329 kts | 250° |
| 2026-04-30 21:43 | 41.01876 | -72.44482 | 17166 ft | 327 kts | 250° |
| 2026-04-30 21:44 | 41.01167 | -72.47319 | 16737 ft | 325 kts | 250° |
| 2026-04-30 21:44 | 41.00456 | -72.50156 | 16298 ft | 323 kts | 250° |
| 2026-04-30 21:44 | 40.99754 | -72.52956 | 15875 ft | 320 kts | 250° |
| 2026-04-30 21:44 | 40.99057 | -72.55733 | 15459 ft | 318 kts | 250° |
| 2026-04-30 21:45 | 40.98362 | -72.58498 | 15177 ft | 317 kts | 251° |
| 2026-04-30 21:45 | 40.97664 | -72.61274 | 14774 ft | 316 kts | 251° |
| 2026-04-30 21:45 | 40.96974 | -72.64012 | 14358 ft | 316 kts | 251° |
| 2026-04-30 21:45 | 40.96279 | -72.66768 | 13945 ft | 313 kts | 250° |
| 2026-04-30 21:46 | 40.95591 | -72.69492 | 13541 ft | 312 kts | 250° |
| 2026-04-30 21:46 | 40.94902 | -72.72220 | 13128 ft | 311 kts | 250° |
| 2026-04-30 21:46 | 40.94215 | -72.74934 | 12718 ft | 311 kts | 251° |
| 2026-04-30 21:46 | 40.93531 | -72.77635 | 12303 ft | 310 kts | 251° |
| 2026-04-30 21:47 | 40.92474 | -72.80079 | 12021 ft | 306 kts | 225° |
| 2026-04-30 21:47 | 40.90810 | -72.81873 | 12011 ft | 309 kts | 219° |
| 2026-04-30 21:47 | 40.89071 | -72.83588 | 11993 ft | 309 kts | 218° |
| 2026-04-30 21:47 | 40.87332 | -72.85277 | 11991 ft | 311 kts | 218° |
| 2026-04-30 21:48 | 40.85569 | -72.86977 | 11990 ft | 311 kts | 218° |
| 2026-04-30 21:48 | 40.83847 | -72.88631 | 11990 ft | 310 kts | 218° |
| 2026-04-30 21:48 | 40.82100 | -72.90306 | 11988 ft | 311 kts | 218° |
| 2026-04-30 21:48 | 40.80348 | -72.91983 | 11986 ft | 311 kts | 218° |
| 2026-04-30 21:49 | 40.78587 | -72.93669 | 11987 ft | 311 kts | 218° |
| 2026-04-30 21:49 | 40.76828 | -72.95351 | 11989 ft | 312 kts | 218° |
| 2026-04-30 21:49 | 40.75081 | -72.97021 | 11986 ft | 312 kts | 218° |
| 2026-04-30 21:49 | 40.73334 | -72.98689 | 11982 ft | 312 kts | 218° |
| 2026-04-30 21:50 | 40.71572 | -73.00370 | 11974 ft | 310 kts | 218° |
| 2026-04-30 21:50 | 40.69862 | -73.02093 | 11970 ft | 311 kts | 228° |
| 2026-04-30 21:50 | 40.68787 | -73.04530 | 11896 ft | 307 kts | 256° |
| 2026-04-30 21:50 | 40.68618 | -73.07317 | 11906 ft | 309 kts | 268° |
| 2026-04-30 21:51 | 40.68607 | -73.10131 | 11563 ft | 307 kts | 269° |
| 2026-04-30 21:51 | 40.68612 | -73.12920 | 11172 ft | 300 kts | 269° |
| 2026-04-30 21:51 | 40.68621 | -73.15619 | 10783 ft | 291 kts | 269° |
| 2026-04-30 21:51 | 40.68632 | -73.18238 | 10401 ft | 282 kts | 270° |
| 2026-04-30 21:52 | 40.68644 | -73.20794 | 10035 ft | 273 kts | 270° |
| 2026-04-30 21:52 | 40.68655 | -73.23254 | 9686 ft | 266 kts | 270° |
| 2026-04-30 21:52 | 40.68665 | -73.25661 | 9349 ft | 265 kts | 270° |
| 2026-04-30 21:52 | 40.68675 | -73.28077 | 9007 ft | 265 kts | 270° |
| 2026-04-30 21:53 | 40.68684 | -73.30534 | 8651 ft | 267 kts | 271° |
| 2026-04-30 21:53 | 40.68693 | -73.32963 | 8298 ft | 267 kts | 271° |
| 2026-04-30 21:53 | 40.69098 | -73.35302 | 7957 ft | 265 kts | 294° |
| 2026-04-30 21:53 | 40.69899 | -73.37470 | 7604 ft | 262 kts | 296° |
| 2026-04-30 21:54 | 40.70699 | -73.39598 | 7247 ft | 255 kts | 296° |
| 2026-04-30 21:54 | 40.71477 | -73.41662 | 6907 ft | 248 kts | 296° |
| 2026-04-30 21:54 | 40.72236 | -73.43675 | 6579 ft | 242 kts | 296° |
| 2026-04-30 21:54 | 40.72969 | -73.45618 | 6265 ft | 236 kts | 297° |
| 2026-04-30 21:55 | 40.73694 | -73.47539 | 5956 ft | 231 kts | 297° |
| 2026-04-30 21:55 | 40.74406 | -73.49425 | 5650 ft | 226 kts | 297° |
| 2026-04-30 21:55 | 40.75092 | -73.51246 | 5361 ft | 221 kts | 297° |
| 2026-04-30 21:55 | 40.75767 | -73.53038 | 5072 ft | 217 kts | 297° |
| 2026-04-30 21:56 | 40.76438 | -73.54820 | 4775 ft | 213 kts | 297° |
| 2026-04-30 21:56 | 40.77288 | -73.56344 | 4688 ft | 207 kts | 324° |
| 2026-04-30 21:56 | 40.78532 | -73.57346 | 4494 ft | 208 kts | 329° |
| 2026-04-30 21:56 | 40.79787 | -73.58275 | 4167 ft | 207 kts | 330° |
| 2026-04-30 21:57 | 40.81045 | -73.59209 | 3794 ft | 208 kts | 330° |
| 2026-04-30 21:57 | 40.82283 | -73.60207 | 3502 ft | 203 kts | 315° |
| 2026-04-30 21:57 | 40.82815 | -73.61789 | 3493 ft | 187 kts | 271° |
| 2026-04-30 21:57 | 40.82322 | -73.63329 | 3306 ft | 188 kts | 226° |
| 2026-04-30 21:58 | 40.81117 | -73.63989 | 3037 ft | 199 kts | 180° |
| 2026-04-30 21:58 | 40.79751 | -73.64025 | 3010 ft | 196 kts | 202° |
| 2026-04-30 21:58 | 40.78534 | -73.64710 | 2878 ft | 187 kts | 211° |
| 2026-04-30 21:58 | 40.77380 | -73.65513 | 2568 ft | 188 kts | 213° |
| 2026-04-30 21:59 | 40.76236 | -73.66364 | 2247 ft | 190 kts | 214° |
| 2026-04-30 21:59 | 40.75090 | -73.67244 | 1941 ft | 191 kts | 214° |
| 2026-04-30 21:59 | 40.73936 | -73.68143 | 1802 ft | 191 kts | 214° |
| 2026-04-30 22:00 | 40.71697 | -73.69895 | 1659 ft | 182 kts | 214° |
| 2026-04-30 22:00 | 40.69643 | -73.71500 | 1221 ft | 155 kts | 214° |
| 2026-04-30 22:00 | 40.68747 | -73.72189 | 1009 ft | 146 kts | 213° |
| 2026-04-30 22:01 | 40.67902 | -73.72848 | 807 ft | 140 kts | 214° |
| 2026-04-30 22:01 | 40.67084 | -73.73504 | 636 ft | 134 kts | 212° |
| 2026-04-30 22:01 | 40.66277 | -73.74113 | 447 ft | 134 kts | 213° |
| 2026-04-30 22:01 | 40.65464 | -73.74748 | 267 ft | 135 kts | 213° |
| 2026-04-30 22:02 | 40.64675 | -73.75369 | 96 ft | 133 kts | 211° |
| 2026-04-30 22:02 | 40.63905 | -73.75971 | 16 ft | 115 kts | 210° |
| 2026-04-30 22:02 | 40.63365 | -73.76395 | 14 ft | 65 kts | 212° |
| 2026-04-30 22:02 | 40.63070 | -73.76634 | 13 ft | 44 kts | 222° |
| 2026-04-30 22:03 | 40.62933 | -73.76897 | 13 ft | 24 kts | 254° |
| 2026-04-30 22:03 | 40.62983 | -73.77089 | 13 ft | 23 kts | 299° |
| 2026-04-30 22:03 | 40.63068 | -73.77270 | 13 ft | 23 kts | 301° |
| 2026-04-30 22:03 | 40.63149 | -73.77455 | 13 ft | 23 kts | 299° |
| 2026-04-30 22:04 | 40.63234 | -73.77641 | 13 ft | 24 kts | 301° |
| 2026-04-30 22:04 | 40.63312 | -73.77812 | 13 ft | 16 kts | 315° |
| 2026-04-30 22:04 | 40.63518 | -73.77743 | 13 ft | 15 kts | 307° |
| 2026-04-30 22:05 | 40.63575 | -73.77861 | 13 ft | 10 kts | 319° |
| 2026-04-30 22:05 | 40.63594 | -73.77937 | 13 ft | 9 kts | 250° |
| 2026-04-30 22:05 | 40.63585 | -73.77998 | 13 ft | 3 kts | 263° |
| 2026-04-30 22:05 | 40.63583 | -73.78013 | 13 ft | 0 kts | 262° |